createdAt,value
2023-03-10T00:01:24.213Z,7.30
2023-03-10T00:04:00.010Z,7.40
2023-03-10T00:06:37.517Z,7.40
2023-03-10T00:09:12.204Z,7.60
2023-03-10T00:11:46.338Z,7.70
2023-03-10T00:14:19.470Z,7.70
2023-03-10T00:16:53.847Z,7.70
2023-03-10T00:19:27.049Z,7.70
2023-03-10T00:22:00.365Z,7.80
2023-03-10T00:24:33.666Z,7.90
2023-03-10T00:27:06.859Z,7.90
2023-03-10T00:29:39.929Z,7.90
2023-03-10T00:32:14.320Z,7.90
2023-03-10T00:34:47.345Z,7.90
2023-03-10T00:37:20.607Z,7.90
2023-03-10T00:39:54.122Z,7.90
2023-03-10T00:42:27.155Z,8.00
2023-03-10T00:45:00.182Z,8.00
2023-03-10T00:47:34.950Z,8.00
2023-03-10T00:50:09.498Z,8.00
2023-03-10T00:52:42.578Z,8.00
2023-03-10T00:55:15.601Z,8.10
2023-03-10T00:57:48.620Z,8.10
2023-03-10T01:00:24.466Z,8.10
2023-03-10T01:02:59.662Z,8.10
2023-03-10T01:05:33.441Z,8.10
2023-03-10T01:08:06.939Z,8.00
2023-03-10T01:10:40.138Z,7.90
2023-03-10T01:13:14.520Z,8.00
2023-03-10T01:15:48.820Z,8.10
2023-03-10T01:18:23.611Z,8.10
2023-03-10T01:20:56.628Z,8.10
2023-03-10T01:23:30.079Z,8.10
2023-03-10T01:26:03.142Z,8.10
2023-03-10T01:28:36.266Z,8.10
2023-03-10T01:31:10.427Z,8.10
2023-03-10T01:33:45.733Z,8.00
2023-03-10T01:36:22.756Z,7.90
2023-03-10T01:38:57.764Z,7.80
2023-03-10T01:41:30.930Z,7.70
2023-03-10T01:44:04.938Z,7.70
2023-03-10T01:46:50.922Z,7.70
2023-03-10T01:49:39.822Z,7.60
2023-03-10T01:52:17.617Z,7.50
2023-03-10T01:54:55.318Z,7.60
2023-03-10T01:57:33.190Z,7.60
2023-03-10T02:00:12.234Z,7.60
2023-03-10T02:02:54.237Z,7.50
2023-03-10T02:05:30.481Z,7.40
2023-03-10T02:08:04.480Z,7.40
2023-03-10T02:10:38.158Z,7.40
2023-03-10T02:13:11.272Z,7.40
2023-03-10T02:15:44.600Z,7.40
2023-03-10T02:18:19.259Z,7.30
2023-03-10T02:21:01.470Z,7.30
2023-03-10T02:23:45.067Z,7.30
2023-03-10T02:26:36.597Z,7.40
2023-03-10T02:29:16.989Z,7.50
2023-03-10T02:31:50.674Z,7.70
2023-03-10T02:34:25.143Z,7.80
2023-03-10T02:36:58.292Z,7.90
2023-03-10T02:39:31.373Z,8.10
2023-03-10T02:42:05.762Z,8.30
2023-03-10T02:44:41.001Z,8.80
2023-03-10T02:47:14.451Z,9.00
2023-03-10T02:49:47.988Z,9.40
2023-03-10T02:52:29.541Z,9.60
2023-03-10T02:55:02.704Z,9.80
2023-03-10T02:57:35.722Z,9.90
2023-03-10T03:00:12.831Z,9.90
2023-03-10T03:02:45.873Z,10.00
2023-03-10T03:05:19.145Z,10.10
2023-03-10T03:07:52.279Z,10.10
2023-03-10T03:10:25.422Z,10.20
2023-03-10T03:12:58.554Z,10.30
2023-03-10T03:15:33.318Z,10.20
2023-03-10T03:18:06.973Z,10.30
2023-03-10T03:20:41.360Z,10.20
2023-03-10T03:23:14.686Z,10.40
2023-03-10T03:25:47.729Z,10.30
2023-03-10T03:28:21.414Z,10.50
2023-03-10T03:30:55.973Z,10.50
2023-03-10T03:33:29.092Z,10.40
2023-03-10T03:36:02.305Z,10.30
2023-03-10T03:38:35.372Z,10.30
2023-03-10T03:41:09.612Z,10.40
2023-03-10T03:43:42.926Z,10.50
2023-03-10T03:46:17.439Z,10.50
2023-03-10T03:48:50.535Z,10.50
2023-03-10T03:51:23.561Z,10.50
2023-03-10T03:53:56.634Z,10.60
2023-03-10T03:56:29.628Z,10.40
2023-03-10T03:59:02.724Z,10.40
2023-03-10T04:01:37.195Z,10.30
2023-03-10T04:04:10.385Z,10.30
2023-03-10T04:06:43.708Z,10.30
2023-03-10T04:09:18.134Z,10.30
2023-03-10T04:11:51.216Z,10.20
2023-03-10T04:14:24.295Z,10.30
2023-03-10T04:16:58.683Z,10.30
2023-03-10T04:19:32.302Z,10.30
2023-03-10T04:22:05.414Z,10.20
2023-03-10T04:24:39.590Z,10.20
2023-03-10T04:27:12.641Z,10.30
2023-03-10T04:29:45.638Z,10.40
2023-03-10T04:32:20.142Z,10.20
2023-03-10T04:34:53.569Z,10.20
2023-03-10T04:37:30.187Z,10.10
2023-03-10T04:40:08.215Z,10.00
2023-03-10T04:42:41.343Z,10.00
2023-03-10T04:45:15.130Z,9.90
2023-03-10T04:47:49.508Z,9.90
2023-03-10T04:50:22.681Z,9.90
2023-03-10T04:52:56.059Z,9.80
2023-03-10T04:55:29.159Z,9.70
2023-03-10T04:58:02.459Z,9.60
2023-03-10T05:00:35.581Z,9.70
2023-03-10T05:03:10.063Z,9.60
2023-03-10T05:05:44.050Z,9.50
2023-03-10T05:08:17.138Z,9.50
2023-03-10T05:10:50.242Z,9.40
2023-03-10T05:13:23.276Z,9.40
2023-03-10T05:15:56.364Z,9.50
2023-03-10T05:18:30.851Z,9.50
2023-03-10T05:21:03.909Z,9.50
2023-03-10T05:23:37.102Z,9.40
2023-03-10T05:26:12.395Z,9.50
2023-03-10T05:28:45.415Z,9.50
2023-03-10T05:31:26.559Z,9.50
2023-03-10T05:34:01.165Z,9.60
2023-03-10T05:36:34.286Z,9.50
2023-03-10T05:39:09.535Z,9.50
2023-03-10T05:41:42.603Z,9.50
2023-03-10T05:44:15.652Z,9.50
2023-03-10T05:46:48.806Z,9.50
2023-03-10T05:49:23.332Z,9.50
2023-03-10T05:51:56.380Z,9.60
2023-03-10T05:54:29.398Z,9.60
2023-03-10T05:57:02.450Z,9.50
2023-03-10T05:59:35.561Z,9.50
2023-03-10T06:02:08.708Z,9.60
2023-03-10T06:04:43.075Z,9.80
2023-03-10T06:07:16.144Z,9.80
2023-03-10T06:09:49.211Z,9.90
2023-03-10T06:12:22.366Z,9.90
2023-03-10T06:14:55.505Z,9.80
2023-03-10T06:17:28.536Z,9.90
2023-03-10T06:20:03.018Z,10.10
2023-03-10T06:22:36.096Z,9.90
2023-03-10T06:25:10.645Z,10.00
2023-03-10T06:27:43.720Z,9.90
2023-03-10T06:30:17.693Z,9.80
2023-03-10T06:32:50.894Z,9.70
2023-03-10T06:35:25.355Z,9.70
2023-03-10T06:37:58.430Z,9.60
2023-03-10T06:40:31.633Z,9.60
2023-03-10T06:43:04.714Z,9.50
2023-03-10T06:45:37.994Z,9.50
2023-03-10T06:48:11.877Z,9.50
2023-03-10T06:50:48.964Z,9.50
2023-03-10T06:53:23.054Z,9.40
2023-03-10T06:56:01.222Z,9.40
2023-03-10T06:58:36.296Z,9.40
2023-03-10T07:01:10.167Z,9.40
2023-03-10T07:03:43.872Z,9.30
2023-03-10T07:06:18.396Z,9.30
2023-03-10T07:08:51.845Z,9.40
2023-03-10T07:11:26.705Z,9.40
2023-03-10T07:13:59.951Z,9.50
2023-03-10T07:16:33.050Z,9.70
2023-03-10T07:19:06.061Z,10.00
2023-03-10T07:21:40.664Z,10.40
2023-03-10T07:24:13.748Z,10.80
2023-03-10T07:26:46.997Z,10.90
2023-03-10T07:29:20.032Z,11.00
2023-03-10T07:31:53.160Z,11.10
2023-03-10T07:34:26.186Z,11.30
2023-03-10T07:37:00.633Z,11.40
2023-03-10T07:39:33.674Z,11.50
2023-03-10T07:42:08.022Z,11.40
2023-03-10T07:44:41.077Z,11.40
2023-03-10T07:47:14.201Z,11.20
2023-03-10T07:49:47.410Z,11.10
2023-03-10T07:52:21.877Z,11.10
2023-03-10T07:54:54.863Z,11.00
2023-03-10T07:57:29.800Z,10.90
2023-03-10T08:00:03.016Z,10.80
2023-03-10T08:02:36.808Z,10.80
2023-03-10T08:05:11.770Z,10.90
2023-03-10T08:07:46.480Z,10.90
2023-03-10T08:10:19.929Z,10.80
2023-03-10T08:12:55.091Z,10.90
2023-03-10T08:15:28.847Z,10.90
2023-03-10T08:18:05.126Z,10.80
2023-03-10T08:20:40.726Z,10.80
2023-03-10T08:23:15.823Z,10.70
2023-03-10T08:25:49.475Z,10.70
2023-03-10T08:28:23.074Z,10.90
2023-03-10T08:31:04.166Z,10.90
2023-03-10T08:33:38.807Z,11.10
2023-03-10T08:36:15.668Z,11.10
2023-03-10T08:38:51.564Z,11.10
2023-03-10T08:41:27.562Z,11.10
2023-03-10T08:44:01.761Z,11.00
2023-03-10T08:46:35.789Z,11.00
2023-03-10T08:49:09.223Z,11.00
2023-03-10T08:51:43.207Z,10.90
2023-03-10T08:54:20.883Z,10.80
2023-03-10T08:56:54.319Z,10.70
2023-03-10T08:59:27.648Z,10.20
2023-03-10T09:02:00.755Z,9.90
2023-03-10T09:04:33.862Z,9.50
2023-03-10T09:07:06.991Z,9.40
2023-03-10T09:09:41.480Z,9.20
2023-03-10T09:12:14.528Z,9.10
2023-03-10T09:14:48.424Z,9.00
2023-03-10T09:17:21.498Z,8.90
2023-03-10T09:19:54.551Z,8.90
2023-03-10T09:22:27.625Z,8.70
2023-03-10T09:25:02.044Z,8.60
2023-03-10T09:27:35.152Z,8.50
2023-03-10T09:30:09.527Z,8.50
2023-03-10T09:32:44.854Z,8.50
2023-03-10T09:35:18.223Z,8.70
2023-03-10T09:37:51.402Z,8.80
2023-03-10T09:40:26.462Z,9.00
2023-03-10T09:43:02.430Z,9.00
2023-03-10T09:45:44.905Z,9.10
2023-03-10T09:48:37.790Z,9.30
2023-03-10T09:51:18.002Z,9.60
2023-03-10T09:53:59.929Z,9.90
2023-03-10T09:56:37.158Z,10.00
2023-03-10T09:59:16.586Z,10.20
2023-03-10T10:01:52.377Z,10.40
2023-03-10T10:04:35.075Z,10.60
2023-03-10T10:07:17.381Z,10.80
2023-03-10T10:09:56.507Z,11.10
2023-03-10T10:12:30.947Z,11.10
2023-03-10T10:15:17.880Z,11.30
2023-03-10T10:18:24.961Z,11.40
2023-03-10T10:21:01.750Z,11.30
2023-03-10T10:23:43.639Z,11.40
2023-03-10T10:26:20.301Z,11.30
2023-03-10T10:28:57.692Z,11.30
2023-03-10T10:31:34.973Z,11.30
2023-03-10T10:34:20.819Z,11.30
2023-03-10T10:36:57.102Z,11.30
2023-03-10T10:39:34.527Z,11.30
2023-03-10T10:42:20.384Z,11.20
2023-03-10T10:44:57.247Z,11.10
2023-03-10T10:47:32.917Z,11.20
2023-03-10T10:50:21.063Z,11.10
2023-03-10T10:53:21.108Z,11.10
2023-03-10T10:56:04.643Z,11.00
2023-03-10T10:58:40.785Z,10.90
2023-03-10T11:01:17.735Z,10.90
2023-03-10T11:04:06.545Z,10.90
2023-03-10T11:06:39.667Z,10.90
2023-03-10T11:09:18.604Z,11.00
2023-03-10T11:12:01.572Z,10.90
2023-03-10T11:14:49.403Z,10.80
2023-03-10T11:17:29.742Z,10.90
2023-03-10T11:20:15.393Z,11.00
2023-03-10T11:22:55.982Z,11.00
2023-03-10T11:25:37.859Z,11.00
2023-03-10T11:28:42.055Z,11.00
2023-03-10T11:31:33.351Z,11.20
2023-03-10T11:34:22.386Z,11.20
2023-03-10T11:37:06.786Z,11.20
2023-03-10T11:39:49.087Z,11.40
2023-03-10T11:42:32.459Z,11.40
2023-03-10T11:45:21.577Z,11.40
2023-03-10T11:48:07.831Z,11.50
2023-03-10T11:50:50.880Z,11.50
2023-03-10T11:53:35.675Z,11.50
2023-03-10T11:56:12.723Z,11.40
2023-03-10T11:58:51.234Z,11.30
2023-03-10T12:01:31.722Z,11.20
2023-03-10T12:04:14.871Z,11.10
2023-03-10T12:06:55.170Z,11.00
2023-03-10T12:09:40.053Z,11.00
2023-03-10T12:12:16.231Z,10.90
2023-03-10T12:14:50.201Z,10.80
2023-03-10T12:17:23.509Z,10.90
2023-03-10T12:20:25.684Z,10.80
2023-03-10T12:23:02.733Z,10.80
2023-03-10T12:25:49.517Z,10.90
2023-03-10T12:28:28.612Z,10.80
2023-03-10T12:31:04.355Z,10.70
2023-03-10T12:33:53.418Z,10.70
2023-03-10T12:36:37.188Z,10.70
2023-03-10T12:39:32.599Z,10.70
2023-03-10T12:42:14.668Z,10.70
2023-03-10T12:44:55.729Z,10.60
2023-03-10T12:47:49.633Z,10.50
2023-03-10T12:50:46.501Z,10.50
2023-03-10T12:53:32.858Z,10.40
2023-03-10T12:56:36.687Z,10.40
2023-03-10T12:59:17.294Z,10.60
2023-03-10T13:01:55.896Z,10.70
2023-03-10T13:04:29.663Z,10.70
2023-03-10T13:07:04.405Z,10.70
2023-03-10T13:09:43.722Z,10.70
2023-03-10T13:12:22.879Z,10.80
2023-03-10T13:14:59.884Z,10.90
2023-03-10T13:17:34.242Z,10.80
2023-03-10T13:20:17.329Z,10.80
2023-03-10T13:22:55.563Z,10.90
2023-03-10T13:25:28.594Z,10.90
2023-03-10T13:28:11.956Z,10.80
2023-03-10T13:30:46.815Z,10.90
2023-03-10T13:33:27.398Z,10.90
2023-03-10T13:36:00.971Z,10.70
2023-03-10T13:38:34.049Z,10.60
2023-03-10T13:41:13.195Z,10.70
2023-03-10T13:43:49.396Z,10.70
2023-03-10T13:46:27.770Z,10.80
2023-03-10T13:49:06.241Z,10.70
2023-03-10T13:51:39.754Z,10.70
2023-03-10T13:54:21.002Z,10.60
2023-03-10T13:56:57.434Z,10.60
2023-03-10T13:59:33.386Z,10.30
2023-03-10T14:02:15.318Z,10.30
2023-03-10T14:04:51.379Z,10.30
2023-03-10T14:07:27.497Z,10.20
2023-03-10T14:10:19.542Z,10.10
2023-03-10T14:12:55.177Z,10.00
2023-03-10T14:15:38.552Z,9.80
2023-03-10T14:18:19.947Z,9.60
2023-03-10T14:20:52.993Z,9.40
2023-03-10T14:23:29.246Z,9.40
2023-03-10T14:26:02.283Z,9.40
2023-03-10T14:28:35.354Z,9.40
2023-03-10T14:31:21.942Z,9.50
2023-03-10T14:33:54.993Z,9.50
2023-03-10T14:36:28.031Z,9.40
2023-03-10T14:39:01.017Z,9.30
2023-03-10T14:41:34.388Z,9.30
2023-03-10T14:44:07.669Z,9.30
2023-03-10T14:46:42.288Z,9.40
2023-03-10T14:49:17.464Z,9.40
2023-03-10T14:51:50.531Z,9.50
2023-03-10T14:54:25.899Z,9.40
2023-03-10T14:56:59.930Z,9.40
2023-03-10T14:59:32.990Z,9.40
2023-03-10T15:02:22.651Z,9.30
2023-03-10T15:04:55.772Z,9.50
2023-03-10T15:07:28.834Z,9.50
2023-03-10T15:10:11.636Z,9.40
2023-03-10T15:12:45.479Z,9.20
2023-03-10T15:15:21.989Z,9.20
2023-03-10T15:17:56.627Z,9.10
2023-03-10T15:20:29.709Z,9.10
2023-03-10T15:23:02.761Z,9.20
2023-03-10T15:25:35.919Z,9.00
2023-03-10T15:28:08.950Z,8.90
2023-03-10T15:30:42.711Z,8.80
2023-03-10T15:33:17.442Z,8.80
2023-03-10T15:35:50.872Z,8.70
2023-03-10T15:38:23.981Z,8.60
2023-03-10T15:40:57.256Z,8.60
2023-03-10T15:43:30.374Z,8.50
2023-03-10T15:46:07.836Z,8.50
2023-03-10T15:48:42.294Z,8.50
2023-03-10T15:51:18.028Z,8.50
2023-03-10T15:53:51.415Z,8.50
2023-03-10T15:56:24.489Z,8.30
2023-03-10T15:58:58.045Z,8.30
2023-03-10T16:01:31.306Z,8.20
2023-03-10T16:04:06.053Z,8.10
2023-03-10T16:06:39.129Z,8.10
2023-03-10T16:09:12.302Z,7.90
2023-03-10T16:11:45.489Z,7.90
2023-03-10T16:14:18.506Z,7.90
2023-03-10T16:16:51.627Z,7.90
2023-03-10T16:19:26.749Z,7.90
2023-03-10T16:21:59.777Z,7.90
2023-03-10T16:24:33.068Z,7.80
2023-03-10T16:27:06.488Z,7.90
2023-03-10T16:29:40.890Z,7.90
2023-03-10T16:32:14.969Z,8.00
2023-03-10T16:34:49.491Z,7.90
2023-03-10T16:37:22.527Z,8.00
2023-03-10T16:39:56.389Z,7.90
2023-03-10T16:42:35.607Z,7.90
2023-03-10T16:45:09.710Z,7.80
2023-03-10T16:47:43.966Z,7.80
2023-03-10T16:50:18.981Z,7.70
2023-03-10T16:52:56.575Z,7.70
2023-03-10T16:55:29.687Z,7.60
2023-03-10T16:58:02.808Z,7.60
2023-03-10T17:00:38.193Z,7.70
2023-03-10T17:03:11.221Z,7.70
2023-03-10T17:05:45.625Z,7.70
2023-03-10T17:08:18.646Z,7.70
2023-03-10T17:10:51.681Z,7.70
2023-03-10T17:13:24.750Z,7.50
2023-03-10T17:15:57.894Z,7.40
2023-03-10T17:18:30.927Z,7.10
2023-03-10T17:21:14.695Z,7.00
2023-03-10T17:23:48.549Z,6.90
2023-03-10T17:26:22.442Z,6.80
2023-03-10T17:28:55.706Z,6.70
2023-03-10T17:31:30.371Z,6.60
2023-03-10T17:34:07.215Z,6.70
2023-03-10T17:36:42.134Z,6.70
2023-03-10T17:39:19.825Z,6.80
2023-03-10T17:41:54.419Z,6.70
2023-03-10T17:44:27.696Z,6.70
2023-03-10T17:47:00.809Z,6.60
2023-03-10T17:49:34.117Z,6.50
2023-03-10T17:52:08.779Z,6.50
2023-03-10T17:54:41.911Z,6.50
2023-03-10T17:57:15.238Z,6.60
2023-03-10T17:59:48.272Z,6.60
2023-03-10T18:02:21.572Z,6.60
2023-03-10T18:04:54.595Z,6.80
2023-03-10T18:07:30.228Z,6.70
2023-03-10T18:10:03.915Z,6.70
2023-03-10T18:12:37.007Z,6.60
2023-03-10T18:15:11.658Z,6.60
2023-03-10T18:17:44.904Z,6.70
2023-03-10T18:20:18.099Z,6.70
2023-03-10T18:22:52.604Z,6.80
2023-03-10T18:25:25.639Z,6.90
2023-03-10T18:27:58.662Z,6.70
2023-03-10T18:30:31.708Z,6.70
2023-03-10T18:33:04.897Z,6.70
2023-03-10T18:35:39.326Z,6.60
2023-03-10T18:38:14.961Z,6.60
2023-03-10T18:40:48.099Z,6.50
2023-03-10T18:43:21.133Z,6.50
2023-03-10T18:45:54.119Z,6.50
2023-03-10T18:48:28.640Z,6.40
2023-03-10T18:51:02.153Z,6.50
2023-03-10T18:53:36.561Z,6.60
2023-03-10T18:56:10.833Z,6.60
2023-03-10T18:58:43.842Z,6.50
2023-03-10T19:01:17.171Z,6.60
2023-03-10T19:03:50.505Z,6.70
2023-03-10T19:06:23.602Z,6.60
2023-03-10T19:08:57.996Z,6.60
2023-03-10T19:11:35.390Z,6.60
2023-03-10T19:14:08.748Z,6.40
2023-03-10T19:16:42.748Z,6.30
2023-03-10T19:19:15.728Z,6.10
2023-03-10T19:21:48.780Z,5.80
2023-03-10T19:24:23.253Z,5.70
2023-03-10T19:26:56.655Z,5.60
2023-03-10T19:29:29.647Z,5.70
2023-03-10T19:32:03.006Z,5.70
2023-03-10T19:34:36.506Z,5.70
2023-03-10T19:37:09.560Z,5.70
2023-03-10T19:39:44.338Z,5.60
2023-03-10T19:42:17.458Z,5.60
2023-03-10T19:44:50.452Z,5.60
2023-03-10T19:47:23.485Z,5.60
2023-03-10T19:49:56.716Z,5.60
2023-03-10T19:52:29.878Z,5.60
2023-03-10T19:55:04.485Z,5.70
2023-03-10T19:57:37.700Z,5.60
2023-03-10T20:00:14.836Z,5.60
2023-03-10T20:02:48.031Z,5.60
2023-03-10T20:05:21.604Z,5.50
2023-03-10T20:07:54.723Z,5.50
2023-03-10T20:10:29.185Z,5.40
2023-03-10T20:13:02.367Z,5.40
2023-03-10T20:15:35.428Z,5.40
2023-03-10T20:18:08.554Z,5.50
2023-03-10T20:20:42.323Z,5.50
2023-03-10T20:23:16.171Z,5.50
2023-03-10T20:25:50.771Z,5.60
2023-03-10T20:28:23.877Z,5.60
2023-03-10T20:30:56.926Z,5.60
2023-03-10T20:33:30.369Z,5.60
2023-03-10T20:36:03.444Z,5.60
2023-03-10T20:38:36.538Z,5.60
2023-03-10T20:41:12.575Z,5.50
2023-03-10T20:43:46.234Z,5.40
2023-03-10T20:46:19.757Z,5.30
2023-03-10T20:48:52.965Z,5.20
2023-03-10T20:51:26.010Z,5.10
2023-03-10T20:53:59.092Z,5.00
2023-03-10T20:56:34.108Z,4.90
2023-03-10T20:59:07.174Z,4.80
2023-03-10T21:01:42.422Z,4.80
2023-03-10T21:04:15.605Z,4.70
2023-03-10T21:06:48.666Z,5.00
2023-03-10T21:09:21.650Z,5.00
2023-03-10T21:11:56.095Z,4.80
2023-03-10T21:14:29.160Z,4.90
2023-03-10T21:17:03.080Z,4.90
2023-03-10T21:19:36.312Z,5.00
2023-03-10T21:22:09.648Z,4.90
2023-03-10T21:24:42.690Z,4.80
2023-03-10T21:27:17.292Z,4.80
2023-03-10T21:29:50.304Z,4.70
2023-03-10T21:32:25.864Z,4.70
2023-03-10T21:34:59.809Z,4.70
2023-03-10T21:37:33.164Z,4.60
2023-03-10T21:40:09.425Z,4.60
2023-03-10T21:42:43.820Z,4.50
2023-03-10T21:45:20.462Z,4.50
2023-03-10T21:47:53.832Z,4.50
2023-03-10T21:50:27.042Z,4.50
2023-03-10T21:53:00.760Z,4.40
2023-03-10T21:55:34.461Z,4.30
2023-03-10T21:58:08.898Z,4.40
2023-03-10T22:00:42.704Z,4.40
2023-03-10T22:03:15.793Z,4.50
2023-03-10T22:05:50.486Z,4.50
2023-03-10T22:08:23.554Z,4.30
2023-03-10T22:10:56.586Z,4.30
2023-03-10T22:13:30.990Z,4.40
2023-03-10T22:16:05.783Z,4.30
2023-03-10T22:18:39.136Z,4.30
2023-03-10T22:21:12.729Z,4.10
2023-03-10T22:23:46.010Z,3.90
2023-03-10T22:26:19.069Z,4.00
2023-03-10T22:28:53.464Z,4.10
2023-03-10T22:31:26.536Z,4.10
2023-03-10T22:33:59.822Z,4.00
2023-03-10T22:36:32.849Z,3.80
2023-03-10T22:39:05.885Z,3.90
2023-03-10T22:41:39.018Z,4.00
2023-03-10T22:44:13.393Z,3.90
2023-03-10T22:46:47.161Z,4.00
2023-03-10T22:49:20.286Z,4.00
2023-03-10T22:51:53.320Z,4.00
2023-03-10T22:54:26.789Z,4.10
2023-03-10T22:57:00.058Z,4.00
2023-03-10T22:59:34.421Z,3.90
2023-03-10T23:02:07.494Z,4.00
2023-03-10T23:04:40.573Z,3.90
2023-03-10T23:07:13.638Z,3.90
2023-03-10T23:09:46.664Z,4.00
2023-03-10T23:12:19.692Z,3.90
2023-03-10T23:14:54.122Z,3.90
2023-03-10T23:17:27.565Z,3.80
2023-03-10T23:20:00.636Z,3.90
2023-03-10T23:22:33.979Z,3.90
2023-03-10T23:25:08.045Z,3.80
2023-03-10T23:27:41.374Z,3.70
2023-03-10T23:30:17.171Z,3.70
2023-03-10T23:32:51.926Z,3.70
2023-03-10T23:35:28.547Z,3.60
2023-03-10T23:38:03.073Z,3.80
2023-03-10T23:40:37.700Z,3.90
2023-03-10T23:43:10.752Z,3.90
2023-03-10T23:45:45.611Z,3.90
2023-03-10T23:48:20.373Z,3.70
2023-03-10T23:50:53.418Z,3.70
2023-03-10T23:53:28.511Z,3.70
2023-03-10T23:56:01.567Z,3.80
2023-03-10T23:58:34.734Z,3.80
